Time;durP1;ratioP1;P1;durP2;ratioP2;P2;SDS_P1;SDS_P2;PMS_P1;PMS_P2;Temp;Humidity;BMP_temperature;BMP_pressure;BME280_temperature;BME280_humidity;BME280_pressure;Samples;Min_cycle;Max_cycle;Signal;HPM_P1;HPM_P2
2022/03/10 09:21:00;;;;;;;23.97;15.40;;;;;;;;;;6195930;23;20008;-93
2022/03/10 09:23:25;;;;;;;26.50;15.65;;;;;;;;;;6191748;23;20099;-95
2022/03/10 09:25:51;;;;;;;28.00;16.38;;;;;;;;;;6200061;23;20080;-96
2022/03/10 09:28:32;;;;;;;26.23;14.45;;;;;;;;;;6172111;23;20051;-96
2022/03/10 09:30:57;;;;;;;23.10;14.32;;;;;;;;;;6166897;23;20048;-96
2022/03/10 09:33:23;;;;;;;28.40;15.30;;;;;;;;;;6163016;23;20428;-93
2022/03/10 09:35:49;;;;;;;34.00;15.75;;;;;;;;;;6161558;23;20005;-91
2022/03/10 09:38:15;;;;;;;26.20;14.98;;;;;;;;;;6187243;23;20016;-89
2022/03/10 09:40:41;;;;;;;23.27;13.98;;;;;;;;;;6187602;23;20039;-88
2022/03/10 09:43:06;;;;;;;25.52;13.93;;;;;;;;;;6160920;23;20005;-89
2022/03/10 09:45:34;;;;;;;26.33;14.63;;;;;;;;;;6162944;23;20005;-91
2022/03/10 09:48:00;;;;;;;27.10;14.20;;;;;;;;;;6185649;23;20032;-89
2022/03/10 09:50:26;;;;;;;23.42;13.90;;;;;;;;;;6187237;23;20005;-90
2022/03/10 09:52:52;;;;;;;24.65;13.60;;;;;;;;;;6161132;23;20001;-90
2022/03/10 09:55:18;;;;;;;25.13;13.82;;;;;;;;;;6187097;23;19997;-90
2022/03/10 09:57:45;;;;;;;22.63;13.20;;;;;;;;;;6160993;23;20009;-90
2022/03/10 10:00:14;;;;;;;26.25;12.95;;;;;;;;;;6161064;23;20498;-90
2022/03/10 10:02:40;;;;;;;25.55;14.32;;;;;;;;;;6187264;23;19997;-90
2022/03/10 10:05:21;;;;;;;24.67;14.15;;;;;;;;;;6160766;23;20092;-90
2022/03/10 10:08:10;;;;;;;23.35;13.07;;;;;;;;;;6161021;23;20016;-91
2022/03/10 10:10:42;;;;;;;23.45;13.57;;;;;;;;;;6160869;23;20005;-91
2022/03/10 10:13:08;;;;;;;24.80;13.40;;;;;;;;;;6160967;23;20009;-91
2022/03/10 10:15:46;;;;;;;21.42;12.95;;;;;;;;;;6186784;23;20008;-95
2022/03/10 10:18:15;;;;;;;22.60;13.48;;;;;;;;;;6157190;23;20016;-92
2022/03/10 10:20:46;;;;;;;23.00;13.63;;;;;;;;;;6174988;23;20095;-92
2022/03/10 10:23:24;;;;;;;22.13;12.95;;;;;;;;;;6192550;23;20027;-94
2022/03/10 10:25:54;;;;;;;24.10;13.82;;;;;;;;;;6190264;23;20013;-91
2022/03/10 10:28:49;;;;;;;21.25;13.00;;;;;;;;;;6196504;23;20012;-93
2022/03/10 10:31:24;;;;;;;20.95;12.88;;;;;;;;;;6202397;23;20013;-96
2022/03/10 10:34:09;;;;;;;21.25;13.13;;;;;;;;;;6231074;22;20020;-96
2022/03/10 10:36:37;;;;;;;22.45;13.38;;;;;;;;;;6202958;23;20019;-91
2022/03/10 10:39:17;;;;;;;22.15;14.80;;;;;;;;;;6245910;23;20081;-92
2022/03/10 10:41:45;;;;;;;24.27;14.13;;;;;;;;;;6245605;23;20108;-91
2022/03/10 10:44:16;;;;;;;20.60;13.35;;;;;;;;;;6247353;23;20000;-91
2022/03/10 10:46:45;;;;;;;22.02;13.00;;;;;;;;;;6245623;23;20018;-90
2022/03/10 10:49:17;;;;;;;18.83;12.88;;;;;;;;;;6247316;23;20000;-92
2022/03/10 10:51:44;;;;;;;22.00;13.57;;;;;;;;;;6245511;23;20446;-92
2022/03/10 10:54:23;;;;;;;21.48;13.48;;;;;;;;;;6246222;23;20006;-91
2022/03/10 10:56:49;;;;;;;19.67;13.18;;;;;;;;;;6246288;23;20127;-93
2022/03/10 10:59:41;;;;;;;21.23;13.57;;;;;;;;;;6246285;23;20008;-94
2022/03/10 11:02:10;;;;;;;23.55;15.43;;;;;;;;;;6246170;23;20500;-92
2022/03/10 11:04:41;;;;;;;23.73;15.50;;;;;;;;;;6245887;23;20008;-89
2022/03/10 11:07:10;;;;;;;20.17;13.63;;;;;;;;;;6246376;23;20005;-90
2022/03/10 11:09:37;;;;;;;23.87;15.07;;;;;;;;;;6245982;23;20099;-88
2022/03/10 11:12:03;;;;;;;22.05;14.85;;;;;;;;;;6245454;23;20000;-92
2022/03/10 11:14:28;;;;;;;23.63;14.10;;;;;;;;;;6246155;23;20453;-93
2022/03/10 11:16:55;;;;;;;24.30;15.23;;;;;;;;;;6246660;23;20008;-93
2022/03/10 11:19:25;;;;;;;25.05;15.30;;;;;;;;;;6246250;23;20090;-91
2022/03/10 11:22:15;;;;;;;23.00;13.65;;;;;;;;;;6246073;23;20028;-92
2022/03/10 11:25:17;;;;;;;20.90;13.30;;;;;;;;;;6245634;23;20012;-91
2022/03/10 11:27:49;;;;;;;21.88;13.95;;;;;;;;;;6168497;23;20083;-89
2022/03/10 11:30:15;;;;;;;23.63;14.40;;;;;;;;;;6245910;23;20008;-88
2022/03/10 11:32:41;;;;;;;24.17;13.77;;;;;;;;;;6246948;23;20012;-89
2022/03/10 11:35:07;;;;;;;25.35;14.25;;;;;;;;;;6246928;23;20086;-88
2022/03/10 11:37:42;;;;;;;24.40;14.43;;;;;;;;;;6247017;23;20447;-89
2022/03/10 11:40:46;;;;;;;29.85;17.25;;;;;;;;;;6247172;23;20012;-90
2022/03/10 11:43:20;;;;;;;23.45;14.15;;;;;;;;;;6239910;23;20004;-89
2022/03/10 11:45:46;;;;;;;27.40;14.32;;;;;;;;;;6247136;23;20015;-91
2022/03/10 11:48:24;;;;;;;23.48;14.43;;;;;;;;;;6247872;23;20004;-93
2022/03/10 11:50:54;;;;;;;21.77;14.48;;;;;;;;;;6251110;23;20020;-95
2022/03/10 11:53:20;;;;;;;23.85;14.23;;;;;;;;;;6249226;23;20087;-88
2022/03/10 11:55:51;;;;;;;24.55;14.32;;;;;;;;;;6247482;23;20012;-91
2022/03/10 11:58:36;;;;;;;23.55;14.77;;;;;;;;;;6247501;23;20035;-91
2022/03/10 12:01:02;;;;;;;23.58;15.75;;;;;;;;;;6247590;23;20062;-92
2022/03/10 12:03:35;;;;;;;24.48;15.35;;;;;;;;;;6247649;23;20305;-91
2022/03/10 12:06:02;;;;;;;26.00;15.82;;;;;;;;;;6247594;23;20011;-90
2022/03/10 12:08:32;;;;;;;27.42;15.27;;;;;;;;;;6247423;23;20408;-92
2022/03/10 12:10:59;;;;;;;26.08;15.65;;;;;;;;;;6247360;23;20459;-92
2022/03/10 12:13:44;;;;;;;29.50;16.75;;;;;;;;;;6247827;23;20008;-92
2022/03/10 12:16:30;;;;;;;30.80;18.25;;;;;;;;;;6247479;23;20039;-91
2022/03/10 12:18:56;;;;;;;32.67;20.23;;;;;;;;;;6222061;23;20043;-91
2022/03/10 12:21:27;;;;;;;39.60;23.55;;;;;;;;;;6246920;23;20001;-91
2022/03/10 12:23:56;;;;;;;41.50;24.80;;;;;;;;;;6247206;23;20012;-91
2022/03/10 12:26:33;;;;;;;39.58;24.00;;;;;;;;;;6247033;23;20103;-92
2022/03/10 12:29:02;;;;;;;40.90;25.55;;;;;;;;;;6249019;23;20003;-91
2022/03/10 12:31:32;;;;;;;46.58;26.75;;;;;;;;;;6247222;23;20424;-90
2022/03/10 12:34:06;;;;;;;60.63;26.45;;;;;;;;;;6248293;23;20016;-93
2022/03/10 12:36:35;;;;;;;48.80;28.65;;;;;;;;;;6247553;23;20491;-93
2022/03/10 12:39:17;;;;;;;42.03;26.75;;;;;;;;;;6247307;23;20004;-93
2022/03/10 12:41:46;;;;;;;45.45;28.75;;;;;;;;;;6247133;23;20055;-94
2022/03/10 12:44:12;;;;;;;45.53;28.90;;;;;;;;;;6247336;23;20000;-93
2022/03/10 17:13:10;;;;;;;38.67;22.08;;;;;;;;;;6239928;22;20020;-92
2022/03/10 17:15:41;;;;;;;42.13;21.48;;;;;;;;;;6204558;23;20012;-94
2022/03/10 17:18:35;;;;;;;48.45;22.67;;;;;;;;;;6236029;23;20017;-93
2022/03/10 17:21:21;;;;;;;40.03;21.08;;;;;;;;;;6236477;22;20460;-96
2022/03/10 17:23:47;;;;;;;41.63;20.17;;;;;;;;;;6204183;23;20008;-96
2022/03/10 17:26:14;;;;;;;44.60;22.50;;;;;;;;;;6205397;23;20008;-93
2022/03/10 17:28:39;;;;;;;43.88;27.27;;;;;;;;;;6204693;23;20032;-96
2022/03/10 17:31:28;;;;;;;47.25;28.27;;;;;;;;;;6208343;23;20051;-96
2022/03/10 17:37:08;;;;;;;41.33;22.83;;;;;;;;;;6261582;22;20020;-96
2022/03/10 17:39:33;;;;;;;36.50;20.77;;;;;;;;;;6268742;23;20073;-96
2022/03/10 17:41:59;;;;;;;40.20;21.38;;;;;;;;;;6263545;23;20004;-93
2022/03/10 17:44:44;;;;;;;37.78;21.92;;;;;;;;;;6257813;22;20004;-95
2022/03/10 17:47:10;;;;;;;38.55;21.45;;;;;;;;;;6229110;23;20020;-96
2022/03/10 17:49:39;;;;;;;39.17;23.08;;;;;;;;;;6253088;23;20012;-96
2022/03/10 17:52:05;;;;;;;40.85;22.55;;;;;;;;;;6254167;23;20004;-94
2022/03/10 17:54:32;;;;;;;37.15;20.27;;;;;;;;;;6249725;23;20035;-96
2022/03/10 17:56:57;;;;;;;36.53;20.23;;;;;;;;;;6230282;23;20019;-91
2022/03/10 17:59:23;;;;;;;39.83;21.17;;;;;;;;;;6251820;23;20039;-96
2022/03/10 18:01:48;;;;;;;38.20;20.67;;;;;;;;;;6251779;22;20007;-89
2022/03/10 18:04:14;;;;;;;35.50;19.40;;;;;;;;;;6252094;23;20447;-95
2022/03/10 18:06:40;;;;;;;41.20;20.75;;;;;;;;;;6249249;23;20018;-96
2022/03/10 18:09:06;;;;;;;40.60;20.10;;;;;;;;;;6247733;23;19988;-96
2022/03/10 18:11:31;;;;;;;37.35;19.73;;;;;;;;;;6252463;22;20034;-95
2022/03/10 18:13:57;;;;;;;42.05;21.30;;;;;;;;;;6247607;23;20011;-96
2022/03/10 18:16:22;;;;;;;39.85;20.95;;;;;;;;;;6248246;22;20415;-96
2022/03/10 18:18:49;;;;;;;36.65;19.40;;;;;;;;;;6246743;23;20007;-87
2022/03/10 18:21:14;;;;;;;36.92;20.63;;;;;;;;;;6245813;23;20011;-91
2022/03/10 18:23:40;;;;;;;37.88;20.90;;;;;;;;;;6249104;22;20007;-96
2022/03/10 18:26:05;;;;;;;38.20;19.98;;;;;;;;;;6248864;23;20012;-94
2022/03/10 18:28:31;;;;;;;40.50;20.25;;;;;;;;;;6249561;22;20026;-91
2022/03/10 18:30:57;;;;;;;39.40;22.17;;;;;;;;;;6246347;23;20003;-88
2022/03/10 18:33:23;;;;;;;41.83;22.70;;;;;;;;;;6247973;22;20075;-88
2022/03/10 18:35:48;;;;;;;39.85;21.83;;;;;;;;;;6246765;23;20035;-91
2022/03/10 18:38:14;;;;;;;41.03;22.80;;;;;;;;;;6248300;23;19996;-95
2022/03/10 18:40:39;;;;;;;41.58;21.95;;;;;;;;;;6249967;23;20014;-92
2022/03/10 18:43:05;;;;;;;39.83;21.77;;;;;;;;;;6247676;23;20011;-94
2022/03/10 18:45:31;;;;;;;40.28;22.23;;;;;;;;;;6263136;22;20069;-94
2022/03/10 18:47:57;;;;;;;39.90;20.05;;;;;;;;;;6280470;22;19996;-89
2022/03/10 18:50:22;;;;;;;39.13;20.80;;;;;;;;;;6252108;22;20463;-89
2022/03/10 18:52:48;;;;;;;41.47;22.88;;;;;;;;;;6279614;22;20004;-96
2022/03/10 18:55:13;;;;;;;43.00;22.92;;;;;;;;;;6252423;22;20122;-96
2022/03/10 18:57:39;;;;;;;45.47;21.42;;;;;;;;;;6252115;22;20356;-92
2022/03/10 19:00:06;;;;;;;50.83;26.15;;;;;;;;;;6279129;22;20004;-95
2022/03/10 19:02:31;;;;;;;47.80;23.65;;;;;;;;;;6280344;22;20002;-94
2022/03/10 19:04:57;;;;;;;42.55;22.15;;;;;;;;;;6279165;22;19996;-96
2022/03/10 19:07:22;;;;;;;46.33;23.17;;;;;;;;;;6255663;22;20011;-88
2022/03/10 19:09:48;;;;;;;39.95;21.30;;;;;;;;;;6262369;22;20003;-87
2022/03/10 19:12:13;;;;;;;45.80;22.75;;;;;;;;;;6262878;22;20034;-96
2022/03/10 19:14:39;;;;;;;47.92;24.73;;;;;;;;;;6284170;22;20077;-88
2022/03/10 19:17:04;;;;;;;43.35;21.73;;;;;;;;;;6254950;22;20007;-94
2022/03/10 19:19:30;;;;;;;42.90;22.10;;;;;;;;;;6254546;22;20079;-89
2022/03/10 19:21:55;;;;;;;44.03;21.05;;;;;;;;;;6250813;22;20004;-88
2022/03/10 19:24:21;;;;;;;41.50;20.65;;;;;;;;;;6266876;22;20028;-88
2022/03/10 19:26:46;;;;;;;47.25;23.65;;;;;;;;;;6248858;23;20016;-87
2022/03/10 19:29:12;;;;;;;40.03;22.33;;;;;;;;;;6248807;23;20027;-89
2022/03/10 20:40:31;;;;;;;39.50;21.52;;;;;;;;;;6242669;22;20024;-85
2022/03/10 20:42:57;;;;;;;38.83;19.60;;;;;;;;;;6227136;23;20016;-88
2022/03/10 20:45:24;;;;;;;46.70;26.58;;;;;;;;;;6227366;23;20012;-87
2022/03/10 20:47:53;;;;;;;51.63;23.58;;;;;;;;;;6238054;23;20033;-88
2022/03/10 20:50:20;;;;;;;44.30;22.67;;;;;;;;;;6252482;23;20014;-87
2022/03/10 20:52:45;;;;;;;43.22;21.50;;;;;;;;;;6248830;23;20312;-87
2022/03/10 20:55:14;;;;;;;50.42;23.95;;;;;;;;;;6253677;23;20008;-87
2022/03/10 20:57:40;;;;;;;53.85;29.10;;;;;;;;;;6232408;23;20008;-87
2022/03/10 21:00:08;;;;;;;53.53;27.45;;;;;;;;;;6253426;23;20008;-87
2022/03/10 21:02:35;;;;;;;48.17;24.10;;;;;;;;;;6254694;23;19996;-89
2022/03/10 21:05:02;;;;;;;48.15;24.27;;;;;;;;;;6232411;23;20015;-91
2022/03/10 21:07:35;;;;;;;44.95;22.92;;;;;;;;;;6257380;23;20015;-88
2022/03/10 21:10:00;;;;;;;48.38;23.98;;;;;;;;;;6255015;22;20000;-87
2022/03/10 21:12:26;;;;;;;45.65;24.00;;;;;;;;;;6260308;22;20004;-88
2022/03/10 21:14:54;;;;;;;50.20;23.15;;;;;;;;;;6256893;23;20027;-87
2022/03/10 21:17:29;;;;;;;44.13;21.30;;;;;;;;;;6256517;23;20004;-87
2022/03/10 21:20:16;;;;;;;50.30;24.92;;;;;;;;;;6260337;22;20000;-87
2022/03/10 21:22:49;;;;;;;43.28;23.92;;;;;;;;;;6258323;23;20335;-87
2022/03/10 21:25:17;;;;;;;43.67;22.83;;;;;;;;;;6250927;23;20014;-87
2022/03/10 21:27:46;;;;;;;46.50;23.13;;;;;;;;;;6258837;23;20008;-87
2022/03/10 21:30:28;;;;;;;47.55;25.55;;;;;;;;;;6260169;23;20010;-87
2022/03/10 21:33:22;;;;;;;47.50;24.65;;;;;;;;;;6234403;23;20004;-87
2022/03/10 21:35:48;;;;;;;51.17;24.92;;;;;;;;;;6272105;22;20000;-86
2022/03/10 21:38:20;;;;;;;48.50;25.00;;;;;;;;;;6246262;23;20023;-87
2022/03/10 21:40:56;;;;;;;48.50;24.77;;;;;;;;;;6271193;23;20034;-86
2022/03/10 21:43:40;;;;;;;50.72;24.15;;;;;;;;;;6244993;23;20008;-87
2022/03/10 21:46:08;;;;;;;50.10;25.90;;;;;;;;;;6272012;23;20040;-87
2022/03/10 21:49:19;;;;;;;46.97;24.77;;;;;;;;;;6238807;23;20011;-87
2022/03/10 21:51:47;;;;;;;41.47;22.80;;;;;;;;;;6269624;23;20011;-86
2022/03/10 21:54:30;;;;;;;47.17;22.77;;;;;;;;;;6246193;23;20004;-86
2022/03/10 21:56:57;;;;;;;45.75;23.20;;;;;;;;;;6267101;23;20080;-87
2022/03/10 21:59:30;;;;;;;47.65;23.30;;;;;;;;;;6267450;23;19988;-86
2022/03/10 22:02:23;;;;;;;47.53;23.35;;;;;;;;;;6237997;22;19988;-87
2022/03/10 22:08:05;;;;;;;47.55;24.15;;;;;;;;;;6253292;22;20333;-86
2022/03/10 22:10:37;;;;;;;49.40;25.98;;;;;;;;;;6228583;22;20505;-86
2022/03/10 22:13:03;;;;;;;49.22;25.42;;;;;;;;;;6248562;23;20454;-86
2022/03/10 22:15:51;;;;;;;52.22;25.52;;;;;;;;;;6254019;22;20428;-87
2022/03/10 22:18:39;;;;;;;52.28;25.45;;;;;;;;;;6217286;23;20458;-86
2022/03/10 22:21:07;;;;;;;46.92;25.27;;;;;;;;;;6247811;23;20047;-86
2022/03/10 22:24:00;;;;;;;53.47;25.92;;;;;;;;;;6246293;23;20008;-86
2022/03/10 22:26:27;;;;;;;56.58;26.92;;;;;;;;;;6246444;23;20055;-86
2022/03/10 22:29:00;;;;;;;47.50;24.63;;;;;;;;;;6246116;23;20015;-86
2022/03/10 22:31:26;;;;;;;51.88;25.08;;;;;;;;;;6245887;23;20331;-86
2022/03/10 22:33:56;;;;;;;52.00;24.73;;;;;;;;;;6247594;23;20004;-86
2022/03/10 22:36:23;;;;;;;;;;;;;;;;;;6221303;23;20384;-86
2022/03/10 22:38:55;;;;;;;50.47;24.73;;;;;;;;;;6247256;22;20285;-86
2022/03/10 22:41:24;;;;;;;54.97;27.20;;;;;;;;;;6248652;22;20016;-85
2022/03/10 22:43:54;;;;;;;48.65;24.17;;;;;;;;;;6221977;23;20047;-87
2022/03/10 22:46:22;;;;;;;48.45;23.50;;;;;;;;;;6196105;23;20016;-86
2022/03/10 22:49:01;;;;;;;47.17;24.33;;;;;;;;;;5265778;22;22369299;-87
2022/03/10 22:54:23;;;;;;;51.45;24.88;;;;;;;;;;6264391;23;20015;-87
